createdAt,value
2023-02-07T00:01:40.949Z,37.25
2023-02-07T00:04:07.962Z,79.18
2023-02-07T00:06:36.504Z,30.92
2023-02-07T00:09:06.436Z,24.70
2023-02-07T00:11:34.292Z,27.40
2023-02-07T00:14:01.178Z,23.25
2023-02-07T00:16:28.652Z,20.08
2023-02-07T00:18:57.430Z,20.48
2023-02-07T00:21:26.432Z,21.52
2023-02-07T00:23:54.215Z,21.83
2023-02-07T00:26:23.025Z,17.60
2023-02-07T00:28:51.489Z,13.77
2023-02-07T00:31:30.119Z,13.38
2023-02-07T00:34:00.422Z,13.93
2023-02-07T00:36:29.163Z,19.83
2023-02-07T00:39:02.112Z,18.15
2023-02-07T00:41:29.484Z,16.77
2023-02-07T00:43:56.495Z,16.25
2023-02-07T00:46:24.306Z,44.92
2023-02-07T00:48:52.327Z,39.57
2023-02-07T00:51:19.956Z,29.63
2023-02-07T00:53:48.159Z,15.63
2023-02-07T00:56:15.695Z,20.88
2023-02-07T00:58:42.539Z,21.70
2023-02-07T01:01:09.615Z,19.53
2023-02-07T01:03:36.372Z,21.83
2023-02-07T01:06:03.220Z,16.00
2023-02-07T01:08:30.374Z,21.50
2023-02-07T01:10:57.196Z,32.50
2023-02-07T01:13:24.264Z,37.23
2023-02-07T01:15:51.193Z,47.83
2023-02-07T01:18:35.164Z,105.43
2023-02-07T01:21:02.024Z,55.03
2023-02-07T01:23:29.057Z,34.45
2023-02-07T01:25:55.832Z,16.93
2023-02-07T01:28:22.700Z,14.43
2023-02-07T01:30:49.593Z,15.73
2023-02-07T01:33:16.513Z,20.00
2023-02-07T01:35:46.755Z,20.35
2023-02-07T01:38:13.572Z,21.67
2023-02-07T01:40:40.318Z,25.55
2023-02-07T01:43:07.306Z,21.73
2023-02-07T01:49:32.432Z,21.63
2023-02-07T01:52:06.688Z,21.97
2023-02-07T01:54:36.257Z,19.42
2023-02-07T01:57:09.186Z,20.38
2023-02-07T01:59:39.229Z,21.92
2023-02-07T02:02:06.389Z,25.70
2023-02-07T02:04:36.324Z,27.87
2023-02-07T02:07:14.916Z,29.17
2023-02-07T02:10:39.789Z,28.85
2023-02-07T02:13:10.817Z,29.92
2023-02-07T02:16:00.262Z,31.88
2023-02-07T02:18:35.949Z,29.30
2023-02-07T02:21:38.851Z,33.42
2023-02-07T02:24:47.288Z,17.85
2023-02-07T02:27:39.450Z,28.90
2023-02-07T02:30:36.089Z,18.30
2023-02-07T02:33:33.137Z,30.33
2023-02-07T02:36:26.086Z,69.18
2023-02-07T02:39:03.015Z,38.95
2023-02-07T02:41:42.476Z,100.85
2023-02-07T02:44:17.142Z,80.32
2023-02-07T02:46:45.985Z,63.67
2023-02-07T02:49:15.819Z,58.45
2023-02-07T02:51:42.592Z,100.28
2023-02-07T02:54:38.371Z,24.48
2023-02-07T02:57:08.158Z,24.85
2023-02-07T03:00:00.047Z,24.73
2023-02-07T03:02:48.856Z,18.75
2023-02-07T03:05:26.540Z,39.47
2023-02-07T03:08:04.760Z,44.60
2023-02-07T03:10:37.634Z,43.75
2023-02-07T03:13:19.618Z,37.20
2023-02-07T03:16:13.712Z,29.50
2023-02-07T03:19:02.586Z,36.15
2023-02-07T03:21:36.918Z,33.38
2023-02-07T03:24:09.970Z,36.60
2023-02-07T03:26:38.375Z,57.17
2023-02-07T03:29:07.647Z,44.45
2023-02-07T03:31:38.096Z,130.85
2023-02-07T03:34:23.543Z,78.60
2023-02-07T03:37:14.345Z,48.35
2023-02-07T03:39:41.228Z,55.77
2023-02-07T03:42:28.998Z,85.93
2023-02-07T03:44:57.795Z,54.70
2023-02-07T03:47:25.381Z,29.02
2023-02-07T03:49:52.335Z,30.80
2023-02-07T03:52:19.153Z,47.57
2023-02-07T03:54:46.014Z,56.22
2023-02-07T03:57:12.909Z,48.40
2023-02-07T03:59:39.693Z,39.80
2023-02-07T04:02:06.480Z,46.40
2023-02-07T04:04:33.266Z,33.60
2023-02-07T04:07:00.034Z,61.17
2023-02-07T04:09:26.835Z,80.95
2023-02-07T04:11:53.845Z,63.35
2023-02-07T04:14:21.439Z,99.20
2023-02-07T04:16:49.399Z,54.23
2023-02-07T04:19:17.016Z,79.10
2023-02-07T04:21:43.795Z,47.72
2023-02-07T04:24:11.654Z,43.80
2023-02-07T04:26:38.861Z,31.40
2023-02-07T04:29:05.740Z,34.00
2023-02-07T04:31:32.563Z,27.30
2023-02-07T04:33:59.550Z,24.90
2023-02-07T04:36:26.482Z,31.30
2023-02-07T04:38:53.247Z,31.98
2023-02-07T04:41:19.949Z,30.07
2023-02-07T04:43:46.642Z,37.63
2023-02-07T04:46:13.668Z,35.42
2023-02-07T04:48:40.512Z,55.13
2023-02-07T04:51:07.545Z,57.53
2023-02-07T04:53:34.374Z,59.33
2023-02-07T04:56:01.210Z,58.35
2023-02-07T04:58:28.011Z,66.57
2023-02-07T05:00:55.262Z,41.63
2023-02-07T05:03:22.068Z,41.25
2023-02-07T05:05:48.844Z,64.57
2023-02-07T05:08:15.672Z,89.10
2023-02-07T05:10:42.508Z,103.85
2023-02-07T05:13:09.286Z,50.35
2023-02-07T05:15:36.193Z,54.13
2023-02-07T05:18:03.436Z,61.57
2023-02-07T05:20:30.520Z,53.05
2023-02-07T05:22:57.303Z,62.38
2023-02-07T05:25:24.099Z,60.70
2023-02-07T05:27:51.210Z,43.50
2023-02-07T05:30:18.482Z,47.33
2023-02-07T05:33:03.410Z,31.70
2023-02-07T05:35:38.966Z,33.13
2023-02-07T05:38:07.739Z,45.40
2023-02-07T05:40:35.719Z,39.30
2023-02-07T05:43:03.315Z,43.60
2023-02-07T05:45:30.060Z,48.08
2023-02-07T05:47:56.845Z,47.83
2023-02-07T05:50:23.726Z,45.67
2023-02-07T05:52:50.539Z,49.05
2023-02-07T05:55:17.419Z,46.57
2023-02-07T05:57:44.757Z,48.97
2023-02-07T06:00:18.260Z,49.33
2023-02-07T06:02:45.407Z,50.17
2023-02-07T06:05:14.595Z,60.20
2023-02-07T06:07:41.411Z,48.33
2023-02-07T06:10:08.601Z,45.38
2023-02-07T06:12:35.409Z,52.30
2023-02-07T06:15:02.764Z,54.53
2023-02-07T06:17:34.263Z,48.70
2023-02-07T06:20:01.046Z,49.53
2023-02-07T06:22:27.803Z,53.53
2023-02-07T06:24:55.882Z,67.65
2023-02-07T06:27:22.887Z,56.45
2023-02-07T06:29:50.085Z,75.22
2023-02-07T06:32:17.189Z,95.77
2023-02-07T06:34:43.871Z,70.20
2023-02-07T06:37:10.693Z,74.25
2023-02-07T06:39:37.386Z,75.93
2023-02-07T06:42:04.655Z,66.95
2023-02-07T06:44:31.431Z,82.20
2023-02-07T06:46:58.182Z,83.72
2023-02-07T06:49:24.926Z,89.15
2023-02-07T06:51:51.601Z,89.03
2023-02-07T06:54:21.639Z,71.95
2023-02-07T06:56:48.371Z,61.53
2023-02-07T06:59:15.186Z,74.05
2023-02-07T07:01:42.273Z,59.55
2023-02-07T07:04:09.185Z,82.18
2023-02-07T07:06:35.902Z,76.38
2023-02-07T07:09:03.141Z,64.80
2023-02-07T07:11:29.963Z,57.80
2023-02-07T07:13:56.942Z,63.35
2023-02-07T07:16:23.813Z,60.33
2023-02-07T07:18:50.690Z,55.50
2023-02-07T07:21:17.386Z,58.63
2023-02-07T07:23:45.755Z,52.55
2023-02-07T07:26:12.430Z,51.92
2023-02-07T07:28:39.132Z,57.30
2023-02-07T07:31:08.227Z,46.22
2023-02-07T07:33:36.306Z,53.13
2023-02-07T07:36:05.437Z,67.55
2023-02-07T07:41:13.883Z,110.10
2023-02-07T07:43:40.701Z,189.82
2023-02-07T07:46:10.020Z,57.77
2023-02-07T07:48:37.700Z,52.40
2023-02-07T07:51:05.701Z,55.78
2023-02-07T07:53:32.679Z,47.08
2023-02-07T07:56:07.570Z,43.78
2023-02-07T07:58:36.574Z,45.07
2023-02-07T08:01:04.009Z,48.80
2023-02-07T08:03:31.035Z,49.70
2023-02-07T08:05:58.059Z,45.78
2023-02-07T08:08:26.444Z,57.25
2023-02-07T08:10:55.860Z,49.63
2023-02-07T08:13:27.514Z,51.80
2023-02-07T08:15:56.620Z,52.83
2023-02-07T08:18:25.907Z,127.88
2023-02-07T08:20:52.867Z,211.15
2023-02-07T08:23:22.825Z,285.27
2023-02-07T08:25:54.594Z,243.18
2023-02-07T08:28:23.902Z,273.98
2023-02-07T08:30:56.788Z,232.20
2023-02-07T08:33:30.274Z,260.58
2023-02-07T08:36:04.882Z,128.20
2023-02-07T08:38:34.134Z,231.07
2023-02-07T08:41:07.716Z,181.85
2023-02-07T08:46:15.223Z,157.05
2023-02-07T08:48:42.822Z,86.80
2023-02-07T08:51:12.337Z,102.38
2023-02-07T08:53:41.613Z,135.75
2023-02-07T08:56:09.424Z,99.47
2023-02-07T08:58:36.349Z,126.85
2023-02-07T09:01:04.395Z,136.27
2023-02-07T09:03:31.517Z,223.38
2023-02-07T09:05:59.636Z,102.30
2023-02-07T09:08:34.827Z,128.75
2023-02-07T09:11:01.945Z,122.07
2023-02-07T09:13:29.152Z,79.80
2023-02-07T09:15:58.616Z,69.80
2023-02-07T09:18:27.357Z,59.55
2023-02-07T09:20:57.362Z,148.68
2023-02-07T09:23:24.940Z,91.53
2023-02-07T09:26:03.187Z,51.47
2023-02-07T09:28:30.358Z,71.50
2023-02-07T09:30:59.067Z,79.88
2023-02-07T09:33:26.075Z,135.65
2023-02-07T09:35:57.510Z,102.82
2023-02-07T09:38:27.011Z,60.87
2023-02-07T09:43:46.037Z,54.45
2023-02-07T09:46:27.221Z,139.00
2023-02-07T09:49:17.746Z,63.33
2023-02-07T09:51:47.932Z,65.97
2023-02-07T09:54:26.189Z,50.55
2023-02-07T09:56:55.384Z,82.03
2023-02-07T09:59:43.825Z,46.80
2023-02-07T10:02:24.844Z,81.43
2023-02-07T10:04:55.300Z,185.73
2023-02-07T10:07:22.399Z,72.20
2023-02-07T10:09:49.830Z,72.88
2023-02-07T10:13:04.266Z,136.32
2023-02-07T10:15:51.721Z,45.42
2023-02-07T10:18:51.553Z,36.57
2023-02-07T10:21:47.696Z,42.70
2023-02-07T10:24:36.928Z,72.20
2023-02-07T10:27:16.135Z,41.15
2023-02-07T10:30:05.433Z,69.45
2023-02-07T10:32:36.165Z,139.73
2023-02-07T10:35:16.540Z,49.55
2023-02-07T10:37:45.650Z,31.98
2023-02-07T10:40:44.341Z,34.05
2023-02-07T10:43:22.875Z,37.97
2023-02-07T10:45:54.371Z,33.53
2023-02-07T10:48:28.398Z,34.90
2023-02-07T10:50:57.472Z,33.85
2023-02-07T10:53:54.201Z,30.98
2023-02-07T10:56:27.775Z,30.63
2023-02-07T10:58:57.440Z,33.33
2023-02-07T11:01:26.936Z,29.83
2023-02-07T11:03:54.910Z,35.58
2023-02-07T11:06:30.359Z,32.35
2023-02-07T11:09:23.559Z,43.13
2023-02-07T11:11:55.066Z,36.90
2023-02-07T11:14:28.108Z,30.67
2023-02-07T11:16:57.267Z,29.25
2023-02-07T11:19:30.363Z,35.22
2023-02-07T11:22:20.619Z,29.85
2023-02-07T11:24:49.202Z,40.57
2023-02-07T11:27:19.357Z,30.45
2023-02-07T11:29:56.561Z,34.50
2023-02-07T11:32:26.794Z,27.63
2023-02-07T11:35:02.392Z,38.58
2023-02-07T11:37:35.580Z,28.53
2023-02-07T11:40:28.626Z,28.20
2023-02-07T11:43:10.767Z,33.95
2023-02-07T11:45:41.303Z,30.27
2023-02-07T11:48:19.662Z,29.70
2023-02-07T11:50:52.037Z,30.80
2023-02-07T11:53:42.685Z,34.72
2023-02-07T11:56:29.322Z,33.63
2023-02-07T11:58:57.658Z,32.38
2023-02-07T12:01:28.698Z,35.78
2023-02-07T12:04:02.487Z,41.37
2023-02-07T12:06:47.113Z,31.52
2023-02-07T12:09:41.197Z,34.83
2023-02-07T12:12:20.006Z,34.05
2023-02-07T12:14:58.196Z,35.65
2023-02-07T12:17:37.882Z,29.40
2023-02-07T12:20:11.112Z,30.85
2023-02-07T12:23:04.798Z,29.77
2023-02-07T12:25:51.393Z,27.83
2023-02-07T12:28:36.252Z,29.10
2023-02-07T12:31:14.758Z,30.07
2023-02-07T12:33:57.552Z,27.67
2023-02-07T12:36:30.194Z,29.17
2023-02-07T12:39:01.356Z,27.90
2023-02-07T12:41:51.615Z,27.98
2023-02-07T12:44:51.061Z,24.93
2023-02-07T12:47:34.304Z,26.02
2023-02-07T12:50:16.133Z,25.67
2023-02-07T12:53:17.682Z,24.30
2023-02-07T12:55:47.353Z,24.88
2023-02-07T12:58:49.560Z,24.20
2023-02-07T13:01:16.278Z,23.27
2023-02-07T13:04:10.071Z,23.23
2023-02-07T13:06:58.758Z,22.75
2023-02-07T13:09:37.030Z,25.30
2023-02-07T13:15:52.858Z,21.15
2023-02-07T13:18:31.179Z,18.63
2023-02-07T13:21:08.703Z,17.58
2023-02-07T13:23:40.150Z,18.40
2023-02-07T13:26:13.822Z,17.67
2023-02-07T13:29:02.340Z,20.05
2023-02-07T13:31:35.009Z,18.80
2023-02-07T13:34:03.107Z,17.27
2023-02-07T13:36:41.349Z,17.85
2023-02-07T13:39:13.893Z,18.47
2023-02-07T13:42:09.662Z,16.92
2023-02-07T13:45:13.613Z,17.98
2023-02-07T13:47:55.422Z,14.65
2023-02-07T13:50:44.293Z,13.68
2023-02-07T13:53:44.801Z,13.63
2023-02-07T13:56:32.361Z,14.00
2023-02-07T13:59:18.890Z,10.38
2023-02-07T14:01:54.516Z,12.32
2023-02-07T14:04:23.166Z,14.38
2023-02-07T14:06:57.945Z,13.20
2023-02-07T14:09:33.739Z,11.65
2023-02-07T14:12:28.867Z,12.88
2023-02-07T14:15:16.541Z,14.18
2023-02-07T14:17:43.199Z,13.82
2023-02-07T14:20:34.844Z,15.60
2023-02-07T14:23:01.506Z,15.15
2023-02-07T14:25:31.557Z,17.30
2023-02-07T14:28:22.982Z,13.13
2023-02-07T14:30:49.798Z,15.98
2023-02-07T14:33:20.378Z,15.17
2023-02-07T14:36:17.419Z,16.60
2023-02-07T14:39:01.944Z,16.15
2023-02-07T14:41:36.424Z,14.48
2023-02-07T14:44:09.826Z,16.38
2023-02-07T14:46:41.855Z,15.33
2023-02-07T14:49:31.208Z,15.18
2023-02-07T14:52:06.372Z,15.45
2023-02-07T14:55:01.803Z,15.80
2023-02-07T14:57:56.478Z,13.93
2023-02-07T15:00:31.342Z,16.50
2023-02-07T15:03:05.417Z,15.48
2023-02-07T15:05:37.842Z,17.63
2023-02-07T15:08:06.307Z,16.20
2023-02-07T15:10:42.306Z,15.45
2023-02-07T15:13:32.353Z,11.07
2023-02-07T15:16:16.722Z,10.70
2023-02-07T15:18:49.436Z,9.43
2023-02-07T15:21:19.796Z,9.15
2023-02-07T15:23:57.235Z,9.82
2023-02-07T15:26:28.434Z,8.90
2023-02-07T15:29:00.932Z,11.77
2023-02-07T15:31:28.319Z,9.43
2023-02-07T15:34:02.751Z,10.05
2023-02-07T15:36:42.337Z,8.98
2023-02-07T15:39:18.794Z,10.20
2023-02-07T15:41:51.133Z,11.10
2023-02-07T15:44:50.843Z,11.27
2023-02-07T15:47:39.377Z,10.25
2023-02-07T15:50:34.939Z,12.70
2023-02-07T15:53:09.218Z,12.27
2023-02-07T15:55:42.812Z,12.82
2023-02-07T15:58:22.588Z,12.63
2023-02-07T16:00:49.510Z,11.55
2023-02-07T16:03:24.187Z,12.32
2023-02-07T16:06:07.734Z,13.27
2023-02-07T16:08:43.566Z,15.18
2023-02-07T16:11:48.592Z,14.73
2023-02-07T16:14:25.716Z,12.68
2023-02-07T16:16:57.031Z,14.80
2023-02-07T16:19:31.208Z,14.47
2023-02-07T16:22:08.533Z,14.68
2023-02-07T16:24:43.143Z,15.23
2023-02-07T16:27:31.623Z,17.23
2023-02-07T16:30:03.765Z,16.08
2023-02-07T16:32:39.436Z,17.33
2023-02-07T16:35:21.207Z,52.78
2023-02-07T16:37:48.401Z,54.72
2023-02-07T16:40:30.519Z,22.50
2023-02-07T16:42:57.823Z,21.05
2023-02-07T16:45:28.982Z,16.23
2023-02-07T16:47:57.956Z,16.95
2023-02-07T16:50:27.401Z,17.70
2023-02-07T16:52:57.041Z,17.95
2023-02-07T16:55:26.498Z,24.50
2023-02-07T16:57:53.555Z,22.63
2023-02-07T17:00:24.796Z,22.98
2023-02-07T17:02:53.616Z,29.00
2023-02-07T17:05:37.898Z,28.52
2023-02-07T17:08:05.814Z,24.13
2023-02-07T17:10:34.857Z,18.40
2023-02-07T17:13:01.695Z,19.00
2023-02-07T17:15:30.016Z,18.20
2023-02-07T17:17:58.880Z,19.75
2023-02-07T17:20:29.117Z,18.05
2023-02-07T17:22:56.562Z,19.60
2023-02-07T17:25:26.084Z,22.90
2023-02-07T17:27:53.366Z,18.45
2023-02-07T17:30:24.843Z,18.77
2023-02-07T17:32:51.673Z,20.38
2023-02-07T17:35:20.711Z,22.53
2023-02-07T17:37:51.553Z,20.38
2023-02-07T17:40:28.923Z,20.20
2023-02-07T17:42:56.142Z,18.25
2023-02-07T17:45:23.752Z,22.30
2023-02-07T17:47:50.894Z,19.60
2023-02-07T17:50:26.412Z,23.23
2023-02-07T17:52:53.370Z,23.48
2023-02-07T17:55:20.215Z,20.58
2023-02-07T17:57:47.056Z,19.65
2023-02-07T18:00:21.011Z,25.30
2023-02-07T18:02:48.192Z,21.55
2023-02-07T18:05:16.674Z,19.08
2023-02-07T18:07:45.139Z,18.92
2023-02-07T18:10:17.862Z,22.42
2023-02-07T18:12:44.646Z,25.17
2023-02-07T18:15:12.137Z,23.98
2023-02-07T18:17:39.853Z,19.92
2023-02-07T18:20:11.107Z,19.65
2023-02-07T18:22:37.983Z,20.98
2023-02-07T18:25:05.171Z,22.57
2023-02-07T18:27:32.067Z,20.70
2023-02-07T18:29:58.823Z,60.92
2023-02-07T18:32:25.674Z,52.80
2023-02-07T18:34:52.532Z,35.72
2023-02-07T18:37:21.147Z,42.37
2023-02-07T18:39:48.490Z,29.05
2023-02-07T18:42:17.579Z,25.60
2023-02-07T18:44:44.787Z,24.23
2023-02-07T18:47:11.656Z,31.45
2023-02-07T18:49:38.464Z,20.63
2023-02-07T18:52:05.262Z,25.52
2023-02-07T18:54:31.949Z,23.42
2023-02-07T18:56:58.650Z,25.05
2023-02-07T18:59:25.646Z,28.88
2023-02-07T19:01:53.618Z,32.93
2023-02-07T19:04:21.553Z,29.35
2023-02-07T19:06:49.711Z,43.03
2023-02-07T19:09:17.287Z,39.15
2023-02-07T19:11:53.146Z,34.45
2023-02-07T19:14:23.149Z,30.47
2023-02-07T19:16:52.903Z,35.42
2023-02-07T19:19:20.761Z,35.95
2023-02-07T19:21:47.780Z,36.78
2023-02-07T19:24:16.186Z,32.30
2023-02-07T19:26:43.394Z,36.40
2023-02-07T19:29:13.396Z,33.20
2023-02-07T19:31:41.284Z,30.73
2023-02-07T19:34:08.075Z,28.17
2023-02-07T19:36:34.907Z,28.90
2023-02-07T19:39:01.930Z,29.77
2023-02-07T19:41:29.783Z,35.60
2023-02-07T19:43:56.672Z,36.75
2023-02-07T19:46:24.358Z,30.95
2023-02-07T19:48:51.662Z,35.33
2023-02-07T19:51:32.638Z,34.43
2023-02-07T19:54:00.417Z,30.35
2023-02-07T19:56:32.121Z,33.88
2023-02-07T19:59:02.517Z,37.35
2023-02-07T20:01:31.009Z,41.08
2023-02-07T20:04:04.125Z,30.50
2023-02-07T20:06:33.099Z,26.25
2023-02-07T20:09:01.907Z,26.98
2023-02-07T20:11:29.578Z,28.02
2023-02-07T20:14:02.752Z,27.25
2023-02-07T20:16:32.490Z,27.73
2023-02-07T20:18:59.892Z,29.63
2023-02-07T20:21:29.955Z,27.00
2023-02-07T20:23:57.515Z,40.53
2023-02-07T20:26:26.269Z,32.00
2023-02-07T20:28:53.495Z,33.17
2023-02-07T20:31:23.909Z,29.77
2023-02-07T20:33:50.709Z,28.02
2023-02-07T20:36:19.375Z,30.60
2023-02-07T20:38:47.178Z,30.05
2023-02-07T20:41:28.815Z,27.33
2023-02-07T20:43:58.133Z,26.52
2023-02-07T20:46:25.494Z,28.70
2023-02-07T20:49:01.548Z,28.95
2023-02-07T20:51:29.434Z,25.48
2023-02-07T20:53:58.497Z,32.50
2023-02-07T20:56:26.316Z,26.10
2023-02-07T20:58:54.503Z,26.17
2023-02-07T21:01:27.018Z,29.05
2023-02-07T21:03:56.048Z,31.92
2023-02-07T21:06:24.112Z,28.37
2023-02-07T21:08:55.232Z,27.98
2023-02-07T21:11:22.199Z,28.30
2023-02-07T21:13:53.612Z,27.98
2023-02-07T21:16:21.288Z,29.13
2023-02-07T21:18:48.137Z,27.50
2023-02-07T21:21:15.657Z,27.50
2023-02-07T21:23:42.678Z,28.67
2023-02-07T21:26:12.527Z,30.38
2023-02-07T21:28:39.501Z,35.33
2023-02-07T21:31:09.454Z,29.23
2023-02-07T21:33:36.340Z,31.25
2023-02-07T21:36:07.881Z,31.20
2023-02-07T21:38:35.633Z,30.15
2023-02-07T21:41:06.727Z,32.72
2023-02-07T21:43:34.339Z,34.77
2023-02-07T21:46:09.486Z,30.23
2023-02-07T21:48:37.346Z,31.02
2023-02-07T21:51:10.376Z,30.10
2023-02-07T21:53:38.176Z,29.02
2023-02-07T21:56:08.147Z,30.43
2023-02-07T21:58:35.429Z,30.25
2023-02-07T22:01:11.911Z,28.08
2023-02-07T22:03:40.390Z,30.15
2023-02-07T22:06:07.923Z,32.65
2023-02-07T22:08:36.134Z,28.93
2023-02-07T22:11:08.533Z,28.20
2023-02-07T22:13:37.291Z,33.78
2023-02-07T22:16:04.618Z,33.05
2023-02-07T22:18:31.497Z,35.00
2023-02-07T22:21:07.035Z,37.60
2023-02-07T22:23:34.359Z,35.40
2023-02-07T22:26:01.237Z,34.80
2023-02-07T22:28:29.626Z,36.95
2023-02-07T22:30:56.363Z,34.88
2023-02-07T22:33:23.160Z,37.60
2023-02-07T22:35:53.195Z,38.10
2023-02-07T22:38:19.890Z,36.85
2023-02-07T22:40:46.844Z,36.03
2023-02-07T22:43:16.072Z,38.10
2023-02-07T22:45:46.170Z,33.07
2023-02-07T22:48:20.876Z,30.95
2023-02-07T22:50:47.748Z,32.40
2023-02-07T22:53:15.741Z,37.78
2023-02-07T22:55:42.837Z,30.73
2023-02-07T22:58:14.391Z,32.27
2023-02-07T23:00:44.376Z,30.92
2023-02-07T23:03:29.552Z,32.80
2023-02-07T23:05:56.578Z,31.88
2023-02-07T23:08:23.366Z,28.58
2023-02-07T23:10:50.184Z,31.27
2023-02-07T23:13:17.070Z,32.88
2023-02-07T23:15:47.855Z,32.83
2023-02-07T23:18:15.753Z,35.78
2023-02-07T23:20:46.282Z,31.45
2023-02-07T23:23:13.694Z,31.93
2023-02-07T23:25:45.789Z,29.60
2023-02-07T23:28:13.398Z,31.23
2023-02-07T23:30:41.408Z,32.20
2023-02-07T23:33:09.757Z,32.85
2023-02-07T23:35:37.141Z,33.43
2023-02-07T23:38:04.195Z,33.17
2023-02-07T23:40:31.321Z,31.83
2023-02-07T23:42:58.192Z,30.33
2023-02-07T23:45:25.504Z,29.75
2023-02-07T23:47:52.423Z,31.03
2023-02-07T23:50:19.228Z,31.05
2023-02-07T23:52:46.148Z,32.78
2023-02-07T23:55:13.240Z,36.08
2023-02-07T23:57:40.134Z,29.67
